Time;durP1;ratioP1;P1;durP2;ratioP2;P2;SDS_P1;SDS_P2;PMS_P1;PMS_P2;Temp;Humidity;BMP_temperature;BMP_pressure;BME280_temperature;BME280_humidity;BME280_pressure;Samples;Min_cycle;Max_cycle;Signal;HPM_P1;HPM_P2
2021/12/30 00:01:07;;;;;;;20.20;12.93;;;12.70;99.90;;;;;;5068947;28;20476;-43
2021/12/30 00:03:33;;;;;;;19.47;13.17;;;12.70;99.90;;;;;;5068413;28;20467;-43
2021/12/30 00:05:59;;;;;;;24.87;12.30;;;12.70;99.90;;;;;;5069132;28;20430;-44
2021/12/30 00:08:25;;;;;;;21.70;12.20;;;12.70;99.90;;;;;;5070015;28;20558;-43
2021/12/30 00:10:52;;;;;;;19.70;11.87;;;12.70;99.90;;;;;;5069314;28;20196;-43
2021/12/30 00:13:17;;;;;;;18.97;12.13;;;12.60;99.90;;;;;;5064393;28;20991;-43
2021/12/30 00:15:43;;;;;;;21.67;13.00;;;12.60;99.90;;;;;;5069697;28;20521;-45
2021/12/30 00:18:10;;;;;;;22.60;12.73;;;12.60;99.90;;;;;;5071481;28;20196;-43
2021/12/30 00:20:36;;;;;;;23.80;12.63;;;12.60;99.90;;;;;;5088288;28;20433;-47
2021/12/30 00:23:04;;;;;;;23.30;13.10;;;12.60;99.90;;;;;;5089449;28;20462;-43
2021/12/30 00:25:39;;;;;;;21.17;12.00;;;12.60;99.90;;;;;;5068615;28;20463;-44
2021/12/30 00:28:15;;;;;;;20.13;13.00;;;12.60;99.90;;;;;;5058059;28;20729;-45
2021/12/30 00:30:43;;;;;;;20.57;12.43;;;12.50;99.90;;;;;;5069435;28;20426;-43
2021/12/30 00:33:09;;;;;;;20.93;11.27;;;12.50;99.90;;;;;;5068683;28;20435;-43
2021/12/30 00:35:36;;;;;;;24.80;11.77;;;12.50;99.90;;;;;;5069767;28;20434;-46
2021/12/30 00:38:03;;;;;;;19.57;10.20;;;12.60;99.90;;;;;;5067979;28;20457;-43
2021/12/30 00:40:30;;;;;;;20.27;9.30;;;12.50;99.90;;;;;;5069844;28;20427;-44
2021/12/30 00:42:56;;;;;;;16.50;8.37;;;12.50;99.90;;;;;;5059556;28;20463;-43
2021/12/30 00:45:22;;;;;;;21.93;8.67;;;12.50;99.90;;;;;;5068951;28;20444;-44
2021/12/30 00:47:47;;;;;;;17.50;9.10;;;12.50;99.90;;;;;;5068942;28;20490;-43
2021/12/30 00:50:13;;;;;;;16.47;7.87;;;12.70;99.90;;;;;;5069215;28;20701;-44
2021/12/30 00:52:39;;;;;;;18.57;9.50;;;12.50;99.90;;;;;;5068953;28;20673;-43
2021/12/30 00:55:05;;;;;;;17.53;8.20;;;12.40;99.90;;;;;;5068778;28;20648;-46
2021/12/30 00:57:31;;;;;;;20.20;7.57;;;12.40;99.90;;;;;;5059728;28;20215;-44
2021/12/30 00:59:57;;;;;;;16.23;7.43;;;12.40;99.90;;;;;;5064920;28;20921;-43
2021/12/30 01:02:23;;;;;;;13.53;6.93;;;12.40;99.90;;;;;;5068385;28;20227;-43
2021/12/30 01:04:49;;;;;;;16.97;7.23;;;12.40;99.90;;;;;;5068408;28;20181;-44
2021/12/30 01:07:15;;;;;;;16.57;6.70;;;12.40;99.90;;;;;;5068839;28;20177;-44
2021/12/30 01:09:40;;;;;;;13.40;7.00;;;12.40;99.90;;;;;;5069053;28;20431;-43
2021/12/30 01:12:07;;;;;;;17.30;7.07;;;12.40;99.90;;;;;;5061003;28;20550;-44
2021/12/30 01:14:35;;;;;;;17.70;6.73;;;12.40;99.90;;;;;;5062907;28;20189;-44
2021/12/30 01:17:14;;;;;;;16.87;7.10;;;12.40;99.90;;;;;;5068644;28;20427;-43
2021/12/30 01:22:05;;;;;;;16.60;7.33;;;12.30;99.90;;;;;;5077772;28;20450;-46
2021/12/30 01:24:31;;;;;;;13.47;5.90;;;12.30;99.90;;;;;;5084643;28;20432;-44
2021/12/30 01:26:57;;;;;;;16.60;8.23;;;12.30;99.90;;;;;;5052085;28;20248;-43
2021/12/30 01:29:24;;;;;;;22.83;8.77;;;12.30;99.90;;;;;;5067515;28;20415;-43
2021/12/30 01:31:50;;;;;;;23.23;6.87;;;12.30;99.90;;;;;;5068226;28;20189;-46
2021/12/30 01:34:16;;;;;;;17.40;7.13;;;12.30;99.90;;;;;;5067467;28;20473;-43
2021/12/30 01:36:41;;;;;;;20.50;7.47;;;12.30;99.90;;;;;;5068257;28;20851;-44
2021/12/30 01:39:07;;;;;;;21.53;6.73;;;12.30;99.90;;;;;;5067056;28;20559;-44
2021/12/30 01:41:33;;;;;;;15.53;6.50;;;12.40;99.90;;;;;;5067494;28;20185;-44
2021/12/30 01:43:59;;;;;;;17.73;6.43;;;12.40;99.90;;;;;;5058832;28;20457;-44
2021/12/30 01:46:25;;;;;;;11.93;6.23;;;12.30;99.90;;;;;;5068277;28;20416;-43
2021/12/30 01:48:50;;;;;;;20.67;7.83;;;12.30;99.90;;;;;;5067893;28;20252;-42
2021/12/30 01:51:16;;;;;;;16.53;6.53;;;12.20;99.90;;;;;;5067973;28;20231;-44
2021/12/30 01:53:42;;;;;;;15.83;6.83;;;12.20;99.90;;;;;;5067105;28;20239;-44
2021/12/30 01:56:08;;;;;;;13.00;5.90;;;12.30;99.90;;;;;;5067438;28;20231;-45
2021/12/30 01:58:36;;;;;;;10.60;6.00;;;12.30;99.90;;;;;;5058134;28;20601;-42
2021/12/30 02:01:02;;;;;;;21.33;7.07;;;12.30;99.90;;;;;;5067342;28;20185;-43
2021/12/30 02:03:28;;;;;;;13.67;5.47;;;12.30;99.90;;;;;;5066968;28;20499;-46
2021/12/30 02:05:54;;;;;;;14.23;5.77;;;12.30;99.90;;;;;;5067666;28;20467;-45
2021/12/30 02:08:19;;;;;;;13.77;5.33;;;12.30;99.90;;;;;;5067731;28;20211;-43
2021/12/30 02:10:47;;;;;;;18.57;6.83;;;12.40;99.90;;;;;;5067496;28;20189;-43
2021/12/30 02:13:15;;;;;;;17.20;7.00;;;12.50;99.90;;;;;;5055977;28;20220;-43
2021/12/30 02:15:40;;;;;;;20.07;7.10;;;12.30;99.90;;;;;;5067803;28;20419;-44
2021/12/30 02:18:07;;;;;;;22.37;7.10;;;12.30;99.90;;;;;;5068538;28;20792;-43
2021/12/30 02:20:52;;;;;;;19.43;6.67;;;12.30;99.90;;;;;;5085841;28;20212;-44
2021/12/30 02:23:35;;;;;;;24.63;7.30;;;12.20;99.90;;;;;;5081947;28;20979;-44
2021/12/30 02:26:07;;;;;;;26.83;6.50;;;12.50;99.90;;;;;;5060096;28;20424;-44
2021/12/30 02:28:35;;;;;;;16.03;6.60;;;12.40;99.90;;;;;;5061401;28;20529;-45
2021/12/30 02:31:07;;;;;;;14.77;5.83;;;12.40;99.90;;;;;;5067150;28;20424;-43
2021/12/30 02:33:33;;;;;;;19.37;5.97;;;12.30;99.90;;;;;;5067221;28;20905;-46
2021/12/30 02:35:59;;;;;;;13.40;5.40;;;12.30;99.90;;;;;;5066860;28;20431;-45
2021/12/30 02:38:25;;;;;;;17.30;6.07;;;12.30;99.90;;;;;;5066683;28;20201;-43
2021/12/30 02:40:54;;;;;;;18.30;5.43;;;12.30;99.90;;;;;;5067202;28;20961;-47
2021/12/30 02:43:26;;;;;;;14.47;5.67;;;12.30;99.90;;;;;;5055221;28;20460;-43
2021/12/30 02:45:54;;;;;;;14.70;5.40;;;12.30;99.90;;;;;;5064664;28;20407;-47
2021/12/30 02:48:23;;;;;;;20.63;5.27;;;12.40;99.90;;;;;;5066543;28;20785;-47
2021/12/30 02:50:51;;;;;;;14.40;4.80;;;12.30;99.90;;;;;;5067492;28;20514;-44
2021/12/30 02:53:17;;;;;;;20.70;6.23;;;12.40;99.90;;;;;;5066283;28;20427;-43
2021/12/30 02:55:44;;;;;;;18.67;4.50;;;12.40;99.90;;;;;;5067094;28;20460;-44
2021/12/30 02:58:10;;;;;;;13.63;4.90;;;12.40;99.90;;;;;;5058324;28;20240;-43
2021/12/30 03:00:37;;;;;;;14.47;5.17;;;12.40;99.90;;;;;;5065636;28;20823;-45
2021/12/30 03:03:03;;;;;;;11.30;4.50;;;12.30;99.90;;;;;;5065751;28;20525;-44
2021/12/30 03:05:29;;;;;;;15.20;4.77;;;12.30;99.90;;;;;;5067318;28;20796;-44
2021/12/30 03:07:55;;;;;;;15.03;4.60;;;12.30;99.90;;;;;;5067232;28;21099;-43
2021/12/30 03:10:23;;;;;;;15.37;6.20;;;12.40;99.90;;;;;;5067068;28;20426;-47
2021/12/30 03:12:55;;;;;;;11.73;4.70;;;12.40;99.90;;;;;;5060005;28;20200;-45
2021/12/30 03:15:20;;;;;;;14.30;4.23;;;12.40;99.90;;;;;;5059260;28;20423;-46
2021/12/30 03:17:46;;;;;;;17.93;5.30;;;12.40;99.90;;;;;;5066621;28;20435;-44
2021/12/30 03:20:12;;;;;;;13.80;4.90;;;12.40;99.90;;;;;;5086698;28;20196;-46
2021/12/30 03:22:40;;;;;;;10.27;4.80;;;12.50;99.90;;;;;;5081634;28;20693;-46
2021/12/30 03:25:08;;;;;;;12.97;5.20;;;12.40;99.90;;;;;;5074017;28;20883;-44
2021/12/30 03:27:34;;;;;;;11.30;4.70;;;12.40;99.90;;;;;;5057487;28;20423;-43
2021/12/30 03:30:01;;;;;;;15.20;5.20;;;12.40;99.90;;;;;;5057170;28;20518;-45
2021/12/30 03:32:27;;;;;;;16.30;6.10;;;12.40;99.90;;;;;;5059961;28;20518;-44
2021/12/30 03:34:52;;;;;;;12.63;5.20;;;12.40;99.90;;;;;;5054316;28;20450;-43
2021/12/30 03:37:18;;;;;;;11.40;5.30;;;12.40;99.90;;;;;;5070648;28;20419;-46
2021/12/30 03:39:47;;;;;;;13.47;5.90;;;12.30;99.90;;;;;;5069179;28;20197;-43
2021/12/30 03:42:13;;;;;;;17.10;6.50;;;12.30;99.90;;;;;;5070386;28;20311;-44
2021/12/30 03:44:38;;;;;;;14.00;7.27;;;12.60;99.90;;;;;;5060204;28;20438;-46
2021/12/30 03:47:06;;;;;;;12.23;6.00;;;12.40;99.90;;;;;;5070151;28;20419;-44
2021/12/30 03:49:31;;;;;;;13.00;6.57;;;12.40;99.90;;;;;;5070382;28;20298;-45
2021/12/30 03:51:57;;;;;;;10.00;5.17;;;12.50;99.90;;;;;;5070241;28;20469;-43
2021/12/30 03:54:23;;;;;;;7.63;4.43;;;12.40;99.90;;;;;;5069636;28;20193;-45
2021/12/30 03:56:49;;;;;;;11.90;4.93;;;12.50;99.90;;;;;;5070320;28;20593;-43
2021/12/30 03:59:15;;;;;;;12.40;5.10;;;12.50;99.90;;;;;;5060691;28;20189;-43
2021/12/30 04:01:40;;;;;;;11.97;5.30;;;12.50;99.90;;;;;;5069832;28;20766;-43
2021/12/30 04:04:06;;;;;;;11.67;5.90;;;12.50;99.90;;;;;;5069236;28;20649;-46
2021/12/30 04:06:32;;;;;;;11.57;4.63;;;12.60;99.90;;;;;;5070014;28;20299;-44
2021/12/30 04:08:59;;;;;;;11.33;5.70;;;12.50;99.90;;;;;;5069884;28;20654;-42
2021/12/30 04:11:30;;;;;;;9.97;5.50;;;12.50;99.90;;;;;;5069573;28;20422;-45
2021/12/30 04:13:55;;;;;;;10.10;5.07;;;12.60;99.90;;;;;;5061114;28;20787;-43
2021/12/30 04:16:21;;;;;;;12.43;5.50;;;12.60;99.90;;;;;;5069049;28;20428;-43
2021/12/30 04:18:48;;;;;;;11.03;5.30;;;12.60;99.90;;;;;;5076128;28;20199;-44
2021/12/30 04:21:19;;;;;;;14.93;6.10;;;12.70;99.90;;;;;;5087289;28;20565;-44
2021/12/30 04:23:45;;;;;;;9.43;5.43;;;12.70;99.90;;;;;;5089342;28;21182;-46
2021/12/30 04:26:11;;;;;;;12.93;6.13;;;12.70;99.90;;;;;;5060765;28;20428;-45
2021/12/30 04:28:37;;;;;;;8.47;6.23;;;12.60;99.90;;;;;;5062688;28;20467;-43
2021/12/30 04:31:03;;;;;;;11.10;6.30;;;12.70;99.90;;;;;;5065965;28;20510;-46
2021/12/30 04:33:29;;;;;;;12.23;6.27;;;12.60;99.90;;;;;;5068579;28;20575;-45
2021/12/30 04:35:56;;;;;;;9.80;6.57;;;12.60;99.90;;;;;;5069139;28;20455;-46
2021/12/30 04:38:26;;;;;;;9.70;6.87;;;12.70;99.90;;;;;;5068226;28;20532;-46
2021/12/30 04:40:52;;;;;;;8.73;6.27;;;12.90;99.90;;;;;;5068943;28;20556;-47
2021/12/30 04:43:18;;;;;;;12.40;6.60;;;12.70;99.90;;;;;;5063842;28;20467;-48
2021/12/30 04:45:46;;;;;;;11.97;6.27;;;12.70;99.90;;;;;;5064795;28;20424;-45
2021/12/30 04:48:13;;;;;;;8.77;5.30;;;12.70;99.90;;;;;;5068871;28;20477;-43
2021/12/30 04:50:39;;;;;;;12.70;5.83;;;12.80;99.90;;;;;;5069072;28;20423;-45
2021/12/30 04:53:05;;;;;;;9.23;4.63;;;13.00;99.90;;;;;;5068376;28;20805;-44
2021/12/30 04:55:31;;;;;;;10.43;4.70;;;12.80;99.90;;;;;;5068707;28;20438;-43
2021/12/30 04:57:56;;;;;;;9.57;4.97;;;12.80;99.90;;;;;;5067215;28;20245;-43
2021/12/30 05:00:22;;;;;;;7.70;4.27;;;12.90;99.90;;;;;;5063980;28;20196;-43
2021/12/30 05:05:23;;;;;;;5.07;3.33;;;12.70;99.90;;;;;;5068856;28;20418;-43
2021/12/30 05:07:49;;;;;;;3.90;2.50;;;12.80;99.90;;;;;;5068375;28;20417;-45
2021/12/30 05:10:15;;;;;;;4.13;2.60;;;12.70;99.90;;;;;;5068681;28;20423;-46
2021/12/30 05:12:40;;;;;;;4.43;1.97;;;12.80;99.90;;;;;;5068353;28;20197;-44
2021/12/30 05:15:06;;;;;;;3.03;2.00;;;12.80;99.90;;;;;;5058577;28;20193;-45
2021/12/30 05:17:34;;;;;;;2.80;1.70;;;12.80;99.90;;;;;;5068235;28;20209;-45
2021/12/30 05:20:00;;;;;;;2.53;1.40;;;12.70;99.90;;;;;;5085175;28;20442;-44
2021/12/30 05:22:26;;;;;;;3.10;1.40;;;12.80;99.90;;;;;;5079746;28;20672;-43
2021/12/30 05:24:51;;;;;;;1.17;0.93;;;12.80;99.90;;;;;;5075480;28;21043;-44
2021/12/30 05:27:19;;;;;;;1.30;1.13;;;12.80;99.90;;;;;;5059229;28;20284;-47
2021/12/30 05:29:45;;;;;;;2.20;0.97;;;12.80;99.90;;;;;;5057733;28;20580;-44
2021/12/30 05:32:11;;;;;;;0.70;0.70;;;12.80;99.90;;;;;;5067940;28;20701;-44
2021/12/30 05:34:36;;;;;;;1.77;1.00;;;12.80;99.90;;;;;;5067592;28;20204;-44
2021/12/30 05:37:02;;;;;;;0.90;0.70;;;12.80;99.90;;;;;;5068121;28;20189;-43
2021/12/30 05:39:29;;;;;;;0.83;0.57;;;12.80;99.90;;;;;;5065772;28;20204;-43
2021/12/30 05:41:55;;;;;;;0.70;0.53;;;12.90;99.90;;;;;;5064185;28;20248;-44
2021/12/30 05:44:21;;;;;;;1.87;0.80;;;12.90;99.90;;;;;;5057583;28;20463;-45
2021/12/30 05:46:47;;;;;;;0.70;0.60;;;12.90;99.90;;;;;;5066037;28;20423;-46
2021/12/30 05:49:12;;;;;;;0.57;0.40;;;12.90;99.90;;;;;;5067526;28;20192;-44
2021/12/30 05:51:38;;;;;;;0.70;0.50;;;12.80;99.90;;;;;;5067626;28;20541;-44
2021/12/30 05:54:04;;;;;;;0.80;0.70;;;12.90;99.90;;;;;;5067062;28;20204;-43
2021/12/30 05:56:29;;;;;;;0.73;0.60;;;12.90;99.90;;;;;;5066220;28;20789;-43
2021/12/30 05:58:55;;;;;;;1.17;0.80;;;12.90;99.90;;;;;;5061175;28;20573;-46
2021/12/30 06:01:21;;;;;;;1.73;0.80;;;12.90;99.90;;;;;;5060509;28;20185;-44
2021/12/30 06:03:46;;;;;;;3.70;1.53;;;12.90;99.90;;;;;;5066812;28;20239;-44
2021/12/30 06:06:12;;;;;;;1.60;1.50;;;12.90;99.90;;;;;;5067382;28;20238;-45
2021/12/30 06:08:38;;;;;;;2.77;2.03;;;12.90;99.90;;;;;;5067473;28;20204;-44
2021/12/30 06:11:03;;;;;;;2.17;1.83;;;12.90;99.90;;;;;;5067490;28;20648;-43
2021/12/30 06:13:29;;;;;;;2.63;2.20;;;13.00;99.90;;;;;;5064493;28;20262;-45
2021/12/30 06:15:55;;;;;;;4.20;1.90;;;13.00;99.90;;;;;;5060346;28;20193;-45
2021/12/30 06:18:20;;;;;;;3.17;2.60;;;13.00;99.90;;;;;;5066032;28;20193;-44
2021/12/30 06:20:46;;;;;;;2.10;1.90;;;13.10;99.90;;;;;;5066992;28;20599;-44
2021/12/30 06:23:12;;;;;;;1.97;1.77;;;13.10;99.90;;;;;;5066612;28;20251;-45
2021/12/30 06:25:37;;;;;;;2.20;1.87;;;13.10;99.90;;;;;;5067096;28;20189;-43
2021/12/30 06:28:03;;;;;;;2.90;2.60;;;13.10;99.90;;;;;;5067166;28;20235;-43
2021/12/30 06:30:29;;;;;;;3.60;2.70;;;13.30;99.90;;;;;;5056204;28;20189;-44
2021/12/30 06:32:55;;;;;;;2.77;2.13;;;13.10;99.90;;;;;;5063839;28;20291;-43
2021/12/30 06:35:21;;;;;;;4.30;2.40;;;13.10;99.90;;;;;;5065691;28;20439;-45
2021/12/30 06:37:47;;;;;;;2.90;2.70;;;13.10;99.90;;;;;;5064337;28;20204;-45
2021/12/30 06:40:14;;;;;;;2.33;2.13;;;13.20;99.90;;;;;;5067308;28;20242;-45
2021/12/30 06:42:41;;;;;;;2.60;2.40;;;13.20;99.90;;;;;;5068567;28;20527;-43
2021/12/30 06:45:08;;;;;;;2.20;2.00;;;13.20;99.90;;;;;;5061056;28;20451;-46
2021/12/30 06:47:33;;;;;;;10.43;4.53;;;13.20;99.90;;;;;;5066939;28;20439;-45
2021/12/30 06:50:02;;;;;;;3.30;2.20;;;13.30;99.90;;;;;;5066940;28;20462;-43
2021/12/30 06:52:28;;;;;;;2.90;2.60;;;13.30;99.90;;;;;;5066873;28;20193;-43
2021/12/30 06:54:54;;;;;;;2.97;2.70;;;13.30;99.90;;;;;;5066531;28;20432;-44
2021/12/30 06:57:20;;;;;;;3.90;3.40;;;13.30;99.90;;;;;;5066648;28;20446;-46
2021/12/30 06:59:46;;;;;;;3.53;3.20;;;13.30;99.90;;;;;;5057621;28;20256;-46
2021/12/30 07:02:13;;;;;;;3.40;3.10;;;13.30;99.90;;;;;;5064760;28;20216;-45
2021/12/30 07:04:38;;;;;;;3.87;3.53;;;13.30;99.90;;;;;;5066135;28;20423;-48
2021/12/30 07:07:04;;;;;;;3.87;3.47;;;13.40;99.90;;;;;;5066661;28;20497;-43
2021/12/30 07:09:30;;;;;;;3.67;3.07;;;13.40;99.90;;;;;;5067875;28;20191;-44
2021/12/30 07:11:56;;;;;;;5.20;3.23;;;13.40;99.90;;;;;;5070864;28;20189;-44
2021/12/30 07:14:23;;;;;;;3.77;3.37;;;13.40;99.90;;;;;;5065620;28;20431;-44
2021/12/30 07:16:49;;;;;;;3.93;3.50;;;13.40;99.90;;;;;;5067271;28;20189;-45
2021/12/30 07:19:16;;;;;;;4.20;3.20;;;13.50;99.90;;;;;;5070285;28;20423;-43
2021/12/30 07:21:42;;;;;;;3.17;2.70;;;13.50;99.90;;;;;;5070826;28;20837;-44
2021/12/30 07:24:08;;;;;;;4.00;3.60;;;13.50;99.90;;;;;;5069956;28;20423;-44
2021/12/30 07:26:34;;;;;;;5.20;3.30;;;13.50;99.90;;;;;;5070623;28;20407;-45
2021/12/30 07:29:00;;;;;;;3.13;2.90;;;13.50;99.90;;;;;;5068126;28;20785;-44
2021/12/30 07:31:26;;;;;;;3.57;3.27;;;13.50;99.90;;;;;;5061850;28;20426;-44
2021/12/30 07:33:52;;;;;;;3.20;2.60;;;13.50;99.90;;;;;;5068570;28;20426;-44
2021/12/30 07:36:18;;;;;;;3.53;2.60;;;13.50;99.90;;;;;;5070509;28;20932;-44
2021/12/30 07:38:44;;;;;;;3.10;2.80;;;13.50;99.90;;;;;;5068670;28;20178;-46
2021/12/30 07:41:09;;;;;;;2.90;2.53;;;13.50;99.90;;;;;;5077051;28;20193;-44
2021/12/30 07:43:35;;;;;;;2.80;2.60;;;13.50;99.90;;;;;;5064657;28;20770;-45
2021/12/30 07:46:01;;;;;;;3.17;2.53;;;13.60;99.90;;;;;;5054037;28;20184;-46
2021/12/30 07:48:28;;;;;;;3.60;3.20;;;13.60;99.90;;;;;;5070668;28;20196;-45
2021/12/30 07:50:53;;;;;;;2.43;2.23;;;13.50;99.90;;;;;;5069147;28;20455;-43
2021/12/30 07:53:20;;;;;;;2.87;2.40;;;13.60;99.90;;;;;;5065224;28;20797;-46
2021/12/30 07:55:46;;;;;;;2.60;2.30;;;13.60;99.90;;;;;;5086119;28;20646;-43
2021/12/30 07:58:12;;;;;;;2.33;2.13;;;13.60;99.90;;;;;;5068682;28;20513;-45
2021/12/30 08:00:38;;;;;;;1.80;1.70;;;13.60;99.90;;;;;;5065880;28;20216;-45
2021/12/30 08:03:03;;;;;;;2.40;2.07;;;13.60;99.90;;;;;;5068519;28;20451;-43
2021/12/30 08:05:29;;;;;;;2.30;2.00;;;13.60;99.90;;;;;;5069848;28;20603;-44
2021/12/30 08:07:55;;;;;;;2.43;2.00;;;13.50;99.90;;;;;;5070731;28;20342;-44
2021/12/30 08:10:22;;;;;;;2.43;2.00;;;13.60;99.90;;;;;;5079977;28;20469;-45
2021/12/30 08:12:49;;;;;;;2.37;2.17;;;13.60;99.90;;;;;;5069104;28;20417;-43
2021/12/30 08:15:16;;;;;;;2.17;1.97;;;13.60;99.90;;;;;;5062734;28;20674;-44
2021/12/30 08:17:43;;;;;;;1.90;1.80;;;13.60;99.90;;;;;;5063364;28;20415;-44
2021/12/30 08:20:11;;;;;;;3.30;2.60;;;13.60;99.90;;;;;;5068872;28;20472;-43
2021/12/30 08:22:37;;;;;;;3.37;2.67;;;13.60;99.90;;;;;;5069702;28;20462;-46
2021/12/30 08:25:05;;;;;;;2.13;1.90;;;13.60;99.90;;;;;;5069175;28;20415;-44
2021/12/30 08:27:30;;;;;;;2.60;2.40;;;13.60;99.90;;;;;;5069434;28;20451;-43
2021/12/30 08:29:56;;;;;;;3.13;2.83;;;13.60;99.90;;;;;;5062764;28;20455;-45
2021/12/30 08:32:21;;;;;;;2.83;2.50;;;13.60;99.90;;;;;;5068251;28;20242;-44
2021/12/30 08:34:48;;;;;;;3.00;2.70;;;13.60;99.90;;;;;;5068851;28;20227;-45
2021/12/30 08:37:15;;;;;;;3.00;2.70;;;13.60;99.90;;;;;;5068865;28;20181;-45
2021/12/30 08:39:42;;;;;;;2.63;2.40;;;13.60;99.90;;;;;;5077613;28;20415;-43
2021/12/30 08:42:19;;;;;;;2.73;1.87;;;13.60;99.90;;;;;;5089835;28;20461;-43
2021/12/30 08:44:46;;;;;;;3.10;2.80;;;13.60;99.90;;;;;;5080626;28;20470;-44
2021/12/30 08:47:12;;;;;;;3.40;2.80;;;13.60;99.90;;;;;;5066053;28;20422;-43
2021/12/30 08:49:41;;;;;;;3.30;2.57;;;13.60;99.90;;;;;;5069172;28;20415;-44
2021/12/30 08:52:08;;;;;;;4.00;2.70;;;13.60;99.90;;;;;;5069199;28;20432;-46
2021/12/30 08:54:35;;;;;;;3.20;2.80;;;13.60;99.90;;;;;;5068792;28;20503;-43
2021/12/30 08:57:01;;;;;;;2.90;2.70;;;13.60;99.90;;;;;;5068434;28;20847;-44
2021/12/30 08:59:27;;;;;;;2.67;2.47;;;13.60;99.90;;;;;;5067639;28;20989;-44
2021/12/30 09:01:53;;;;;;;3.20;2.90;;;13.60;99.90;;;;;;5059050;28;20412;-45
2021/12/30 09:04:18;;;;;;;3.27;2.97;;;13.60;99.90;;;;;;5069858;28;20551;-45
2021/12/30 09:06:44;;;;;;;3.00;2.70;;;13.60;99.90;;;;;;5070096;28;20177;-44
2021/12/30 09:09:10;;;;;;;3.20;2.90;;;13.60;99.90;;;;;;5067932;28;20423;-43
2021/12/30 09:11:35;;;;;;;2.50;2.30;;;13.60;99.90;;;;;;5067723;28;20351;-43
2021/12/30 09:14:01;;;;;;;3.30;3.00;;;13.60;99.90;;;;;;5066116;28;20209;-45
2021/12/30 09:16:26;;;;;;;3.03;2.77;;;13.60;99.90;;;;;;5059022;28;20592;-45
2021/12/30 09:18:52;;;;;;;2.40;2.20;;;13.60;99.90;;;;;;5068214;28;20184;-44
2021/12/30 09:21:18;;;;;;;3.70;2.23;;;13.60;99.90;;;;;;5068594;28;20639;-43
2021/12/30 09:23:43;;;;;;;2.77;2.57;;;13.60;99.90;;;;;;5067592;28;20212;-45
2021/12/30 09:26:09;;;;;;;3.53;2.43;;;13.60;99.90;;;;;;5068344;28;20260;-45
2021/12/30 09:28:35;;;;;;;3.13;2.83;;;13.60;99.90;;;;;;5083633;28;20181;-45
2021/12/30 09:31:01;;;;;;;3.33;2.90;;;13.60;99.90;;;;;;5057213;28;20205;-43
2021/12/30 09:33:26;;;;;;;3.77;3.20;;;13.60;99.90;;;;;;5061328;28;20189;-45
2021/12/30 09:35:52;;;;;;;3.23;2.93;;;13.60;99.90;;;;;;5068249;28;20276;-43
2021/12/30 09:38:19;;;;;;;3.00;2.70;;;13.60;99.90;;;;;;5067505;28;20659;-44
2021/12/30 09:40:46;;;;;;;4.20;2.73;;;13.60;99.90;;;;;;5067936;28;20192;-45
2021/12/30 09:43:12;;;;;;;3.47;3.17;;;13.60;99.90;;;;;;5067853;28;20477;-44
2021/12/30 09:45:41;;;;;;;3.10;2.80;;;13.60;99.90;;;;;;5061726;28;20436;-44
2021/12/30 09:48:09;;;;;;;3.10;2.80;;;13.70;99.90;;;;;;5065517;28;20904;-47
2021/12/30 09:50:45;;;;;;;5.40;3.27;;;13.70;99.90;;;;;;5068065;28;20705;-43
2021/12/30 09:53:12;;;;;;;4.17;3.20;;;13.70;99.90;;;;;;5067806;28;20423;-43
2021/12/30 09:55:39;;;;;;;3.27;2.97;;;13.70;99.90;;;;;;5067564;28;20415;-44
2021/12/30 09:58:05;;;;;;;3.20;2.90;;;13.80;99.90;;;;;;5067794;28;20571;-47
2021/12/30 10:00:31;;;;;;;3.80;3.50;;;13.80;99.90;;;;;;5062248;28;20435;-44
2021/12/30 10:02:58;;;;;;;5.37;3.00;;;13.80;99.90;;;;;;5062931;28;20534;-44
2021/12/30 10:05:28;;;;;;;3.30;2.60;;;13.90;99.90;;;;;;5067756;28;20434;-44
2021/12/30 10:08:12;;;;;;;2.83;2.63;;;13.90;99.90;;;;;;5067535;28;20530;-44
2021/12/30 10:10:39;;;;;;;2.50;2.30;;;13.90;99.90;;;;;;5067806;28;20457;-45
2021/12/30 10:13:26;;;;;;;3.00;2.37;;;13.90;99.90;;;;;;5067186;28;20415;-44
2021/12/30 10:15:58;;;;;;;2.40;2.20;;;13.90;99.90;;;;;;5059082;28;20428;-43
2021/12/30 10:18:25;;;;;;;1.77;1.67;;;13.90;99.90;;;;;;5067040;28;20678;-46
2021/12/30 10:20:51;;;;;;;4.23;2.30;;;14.00;99.90;;;;;;5067524;28;20423;-45
2021/12/30 10:23:22;;;;;;;2.73;2.30;;;14.00;99.90;;;;;;5066866;28;20532;-46
2021/12/30 10:25:51;;;;;;;2.73;2.07;;;14.00;99.90;;;;;;5067462;28;20427;-45
2021/12/30 10:28:27;;;;;;;2.43;1.63;;;14.00;99.90;;;;;;5067418;28;20522;-46
2021/12/30 10:31:10;;;;;;;1.67;1.57;;;14.00;99.90;;;;;;5059575;28;20434;-44
2021/12/30 10:33:36;;;;;;;2.20;2.00;;;14.00;99.90;;;;;;5060058;28;20822;-43
2021/12/30 10:36:12;;;;;;;3.70;2.40;;;14.00;99.90;;;;;;5067199;28;20428;-43
2021/12/30 10:38:38;;;;;;;4.30;2.30;;;14.00;99.90;;;;;;5066536;28;20807;-45
2021/12/30 10:41:04;;;;;;;2.47;2.20;;;14.00;99.90;;;;;;5067272;28;20415;-44
2021/12/30 10:43:44;;;;;;;4.90;2.00;;;14.00;99.90;;;;;;5066078;28;20707;-45
2021/12/30 10:46:20;;;;;;;1.77;1.63;;;14.00;99.90;;;;;;5060785;28;20197;-45
2021/12/30 10:49:05;;;;;;;2.07;1.87;;;14.00;99.90;;;;;;5062138;28;20406;-48
2021/12/30 10:51:41;;;;;;;2.30;1.73;;;14.00;99.90;;;;;;5065265;28;20423;-43
2021/12/30 10:54:14;;;;;;;2.47;1.70;;;14.00;99.90;;;;;;5066660;28;20435;-43
2021/12/30 10:56:54;;;;;;;1.70;1.60;;;14.10;99.90;;;;;;5067186;28;20462;-46
2021/12/30 10:59:26;;;;;;;1.97;1.77;;;14.10;99.90;;;;;;5067220;28;20492;-45
2021/12/30 11:02:04;;;;;;;2.97;1.90;;;14.10;99.90;;;;;;5055657;28;20448;-44
2021/12/30 11:04:48;;;;;;;2.57;2.40;;;14.10;99.90;;;;;;5064918;28;20487;-44
2021/12/30 11:07:23;;;;;;;2.17;1.70;;;14.10;99.90;;;;;;5066771;28;20426;-44
2021/12/30 11:10:00;;;;;;;2.30;2.10;;;14.10;99.90;;;;;;5067114;28;20952;-44
2021/12/30 11:12:32;;;;;;;4.40;2.00;;;14.10;99.90;;;;;;5066747;28;20780;-44
2021/12/30 11:15:04;;;;;;;2.47;1.90;;;14.20;99.90;;;;;;5066408;28;20423;-45
2021/12/30 11:17:35;;;;;;;2.67;1.90;;;14.20;99.90;;;;;;5054692;28;20431;-46
2021/12/30 11:20:07;;;;;;;2.60;2.37;;;14.10;99.90;;;;;;5066760;28;20420;-45
2021/12/30 11:22:40;;;;;;;2.63;2.43;;;14.10;99.90;;;;;;5066598;28;20992;-44
2021/12/30 11:25:10;;;;;;;2.60;2.40;;;14.10;99.90;;;;;;5065883;28;20427;-45
2021/12/30 11:27:36;;;;;;;2.23;2.03;;;14.10;99.90;;;;;;5066951;28;20565;-45
2021/12/30 11:30:11;;;;;;;2.70;2.10;;;14.10;99.90;;;;;;5067260;28;20464;-45
2021/12/30 11:32:37;;;;;;;2.90;1.93;;;14.10;99.90;;;;;;5055288;28;20427;-46
2021/12/30 11:35:06;;;;;;;4.77;2.80;;;14.10;99.90;;;;;;5076782;28;20411;-44
2021/12/30 11:37:32;;;;;;;3.80;2.73;;;14.20;99.90;;;;;;5067002;28;20462;-44
2021/12/30 11:40:07;;;;;;;2.97;2.30;;;14.20;99.90;;;;;;5065934;28;20423;-43
2021/12/30 11:42:44;;;;;;;3.10;2.37;;;14.20;99.90;;;;;;5066571;28;20438;-44
2021/12/30 11:45:28;;;;;;;4.17;3.13;;;14.20;99.90;;;;;;5066692;28;20511;-44
2021/12/30 11:48:14;;;;;;;2.97;2.07;;;14.20;99.90;;;;;;5053722;28;20423;-43
2021/12/30 11:50:40;;;;;;;4.40;2.80;;;14.20;99.90;;;;;;5062993;28;20422;-45
2021/12/30 11:53:11;;;;;;;2.97;2.57;;;14.20;99.90;;;;;;5066125;28;20796;-43
2021/12/30 11:55:55;;;;;;;4.77;2.57;;;14.20;99.90;;;;;;5067564;28;20422;-45
2021/12/30 11:58:36;;;;;;;4.67;2.70;;;14.20;99.90;;;;;;5070149;28;20435;-46
2021/12/30 12:01:10;;;;;;;5.10;2.77;;;14.20;99.90;;;;;;5066463;28;20514;-45
2021/12/30 12:03:39;;;;;;;4.83;2.80;;;14.20;99.90;;;;;;5062663;28;20544;-44
2021/12/30 12:06:24;;;;;;;4.27;2.80;;;14.20;99.90;;;;;;5069925;28;20701;-46
2021/12/30 12:08:50;;;;;;;4.60;2.83;;;14.20;99.90;;;;;;5069768;28;20948;-46
2021/12/30 12:11:19;;;;;;;4.10;3.00;;;14.20;99.90;;;;;;5070275;28;20857;-44
2021/12/30 12:13:46;;;;;;;4.73;2.53;;;14.20;99.90;;;;;;5069334;28;20466;-45
2021/12/30 12:16:17;;;;;;;3.20;2.70;;;14.20;99.90;;;;;;5066552;28;20427;-44
2021/12/30 12:19:05;;;;;;;4.37;2.77;;;14.20;99.90;;;;;;5064949;28;20428;-44
2021/12/30 12:21:57;;;;;;;6.70;2.60;;;14.10;99.90;;;;;;5066070;28;20454;-46
2021/12/30 12:24:22;;;;;;;4.83;2.40;;;14.10;99.90;;;;;;5066237;28;20423;-44
2021/12/30 12:26:57;;;;;;;7.00;3.03;;;14.10;99.90;;;;;;5068335;28;20461;-44
2021/12/30 12:29:23;;;;;;;5.87;3.00;;;14.10;99.90;;;;;;5069628;28;20195;-43
2021/12/30 12:32:14;;;;;;;4.97;2.90;;;14.10;99.90;;;;;;5060478;28;20420;-45
2021/12/30 12:34:40;;;;;;;3.10;2.80;;;14.10;99.90;;;;;;5045830;28;20415;-44
2021/12/30 12:37:37;;;;;;;3.70;2.63;;;14.10;99.90;;;;;;5069392;28;20462;-44
2021/12/30 12:40:27;;;;;;;6.07;2.87;;;14.10;99.90;;;;;;5066919;28;20203;-44
2021/12/30 12:42:55;;;;;;;4.80;3.53;;;14.10;99.90;;;;;;5068409;28;20470;-46
2021/12/30 12:45:33;;;;;;;5.17;3.00;;;14.10;99.90;;;;;;5069306;28;20425;-46
2021/12/30 12:48:17;;;;;;;4.13;3.73;;;14.10;99.90;;;;;;5059507;28;20498;-44
2021/12/30 12:51:24;;;;;;;6.20;2.93;;;14.10;99.90;;;;;;5065082;28;20839;-46
2021/12/30 12:53:56;;;;;;;5.00;3.40;;;14.10;99.90;;;;;;5068677;28;20765;-45